sensor_id;sensor_type;location;lat;lon;timestamp;temperature;humidity
7077;DHT22;3579;48.956;9.154;2023-03-01T00:01:06;16.50;39.90
7077;DHT22;3579;48.956;9.154;2023-03-01T00:03:33;16.50;40.00
7077;DHT22;3579;48.956;9.154;2023-03-01T00:06:00;16.50;40.10
7077;DHT22;3579;48.956;9.154;2023-03-01T00:08:27;16.50;39.80
7077;DHT22;3579;48.956;9.154;2023-03-01T00:13:28;16.60;39.90
7077;DHT22;3579;48.956;9.154;2023-03-01T00:15:54;16.60;39.70
7077;DHT22;3579;48.956;9.154;2023-03-01T00:18:20;16.60;39.70
7077;DHT22;3579;48.956;9.154;2023-03-01T00:20:54;16.60;39.80
7077;DHT22;3579;48.956;9.154;2023-03-01T00:23:21;16.50;39.80
7077;DHT22;3579;48.956;9.154;2023-03-01T00:25:47;16.50;39.80
7077;DHT22;3579;48.956;9.154;2023-03-01T00:28:13;16.50;39.90
7077;DHT22;3579;48.956;9.154;2023-03-01T00:30:39;16.50;39.80
7077;DHT22;3579;48.956;9.154;2023-03-01T00:33:05;16.50;39.90
7077;DHT22;3579;48.956;9.154;2023-03-01T00:35:32;16.50;39.90
7077;DHT22;3579;48.956;9.154;2023-03-01T00:37:58;16.50;39.90
7077;DHT22;3579;48.956;9.154;2023-03-01T00:40:25;16.50;40.00
7077;DHT22;3579;48.956;9.154;2023-03-01T00:42:51;16.50;40.50
7077;DHT22;3579;48.956;9.154;2023-03-01T00:45:18;16.50;39.90
7077;DHT22;3579;48.956;9.154;2023-03-01T00:47:44;16.50;40.00
7077;DHT22;3579;48.956;9.154;2023-03-01T00:50:11;16.40;40.00
7077;DHT22;3579;48.956;9.154;2023-03-01T00:52:37;16.40;40.00
7077;DHT22;3579;48.956;9.154;2023-03-01T00:55:04;16.40;40.00
7077;DHT22;3579;48.956;9.154;2023-03-01T00:57:31;16.30;40.00
7077;DHT22;3579;48.956;9.154;2023-03-01T00:59:58;16.30;40.10
7077;DHT22;3579;48.956;9.154;2023-03-01T01:02:24;16.30;40.20
7077;DHT22;3579;48.956;9.154;2023-03-01T01:04:50;16.30;40.20
7077;DHT22;3579;48.956;9.154;2023-03-01T01:07:16;16.20;40.30
7077;DHT22;3579;48.956;9.154;2023-03-01T01:09:42;16.20;40.30
7077;DHT22;3579;48.956;9.154;2023-03-01T01:12:08;16.20;40.40
7077;DHT22;3579;48.956;9.154;2023-03-01T01:14:35;16.20;40.40
7077;DHT22;3579;48.956;9.154;2023-03-01T01:17:01;16.20;40.40
7077;DHT22;3579;48.956;9.154;2023-03-01T01:19:27;16.10;41.00
7077;DHT22;3579;48.956;9.154;2023-03-01T01:21:53;16.10;40.40
7077;DHT22;3579;48.956;9.154;2023-03-01T01:24:19;16.10;40.40
7077;DHT22;3579;48.956;9.154;2023-03-01T01:26:45;16.00;41.20
7077;DHT22;3579;48.956;9.154;2023-03-01T01:29:12;16.00;40.80
7077;DHT22;3579;48.956;9.154;2023-03-01T01:31:40;15.90;40.90
7077;DHT22;3579;48.956;9.154;2023-03-01T01:34:08;15.90;41.10
7077;DHT22;3579;48.956;9.154;2023-03-01T01:36:37;15.90;41.20
7077;DHT22;3579;48.956;9.154;2023-03-01T01:39:03;15.90;41.10
7077;DHT22;3579;48.956;9.154;2023-03-01T01:41:29;15.90;40.90
7077;DHT22;3579;48.956;9.154;2023-03-01T01:44:26;16.00;40.80
7077;DHT22;3579;48.956;9.154;2023-03-01T01:47:05;16.00;40.80
7077;DHT22;3579;48.956;9.154;2023-03-01T01:49:51;16.00;40.80
7077;DHT22;3579;48.956;9.154;2023-03-01T01:52:34;16.00;40.90
7077;DHT22;3579;48.956;9.154;2023-03-01T01:57:39;16.00;41.00
7077;DHT22;3579;48.956;9.154;2023-03-01T02:00:12;15.90;40.90
7077;DHT22;3579;48.956;9.154;2023-03-01T02:02:39;15.90;40.90
7077;DHT22;3579;48.956;9.154;2023-03-01T02:05:22;15.90;40.90
7077;DHT22;3579;48.956;9.154;2023-03-01T02:07:50;15.90;40.90
7077;DHT22;3579;48.956;9.154;2023-03-01T02:10:16;15.90;41.00
7077;DHT22;3579;48.956;9.154;2023-03-01T02:12:43;15.90;41.10
7077;DHT22;3579;48.956;9.154;2023-03-01T02:15:10;15.80;41.10
7077;DHT22;3579;48.956;9.154;2023-03-01T02:17:36;15.80;41.10
7077;DHT22;3579;48.956;9.154;2023-03-01T02:22:48;15.80;41.30
7077;DHT22;3579;48.956;9.154;2023-03-01T02:30:25;15.70;41.10
7077;DHT22;3579;48.956;9.154;2023-03-01T02:32:54;15.70;41.10
7077;DHT22;3579;48.956;9.154;2023-03-01T02:35:32;15.70;41.00
7077;DHT22;3579;48.956;9.154;2023-03-01T02:38:00;15.70;41.20
7077;DHT22;3579;48.956;9.154;2023-03-01T02:40:29;15.60;41.30
7077;DHT22;3579;48.956;9.154;2023-03-01T02:42:58;15.60;41.50
7077;DHT22;3579;48.956;9.154;2023-03-01T02:45:26;15.60;41.70
7077;DHT22;3579;48.956;9.154;2023-03-01T02:47:56;15.50;41.70
7077;DHT22;3579;48.956;9.154;2023-03-01T02:50:54;15.60;41.60
7077;DHT22;3579;48.956;9.154;2023-03-01T02:56:07;15.70;41.30
7077;DHT22;3579;48.956;9.154;2023-03-01T02:58:41;15.70;41.20
7077;DHT22;3579;48.956;9.154;2023-03-01T03:01:11;15.80;41.20
7077;DHT22;3579;48.956;9.154;2023-03-01T03:03:39;15.80;41.00
7077;DHT22;3579;48.956;9.154;2023-03-01T03:06:05;15.80;41.10
7077;DHT22;3579;48.956;9.154;2023-03-01T03:08:31;15.80;41.30
7077;DHT22;3579;48.956;9.154;2023-03-01T03:10:57;15.80;41.30
7077;DHT22;3579;48.956;9.154;2023-03-01T03:13:23;15.80;41.30
7077;DHT22;3579;48.956;9.154;2023-03-01T03:15:57;15.70;41.30
7077;DHT22;3579;48.956;9.154;2023-03-01T03:18:24;15.70;41.30
7077;DHT22;3579;48.956;9.154;2023-03-01T03:20:53;15.70;41.30
7077;DHT22;3579;48.956;9.154;2023-03-01T03:23:21;15.70;41.40
7077;DHT22;3579;48.956;9.154;2023-03-01T03:25:49;15.60;41.30
7077;DHT22;3579;48.956;9.154;2023-03-01T03:28:16;15.60;41.40
7077;DHT22;3579;48.956;9.154;2023-03-01T03:30:42;15.70;41.40
7077;DHT22;3579;48.956;9.154;2023-03-01T03:33:10;15.60;41.40
7077;DHT22;3579;48.956;9.154;2023-03-01T03:35:45;15.60;41.40
7077;DHT22;3579;48.956;9.154;2023-03-01T03:38:13;15.60;41.50
7077;DHT22;3579;48.956;9.154;2023-03-01T03:40:45;15.60;41.60
7077;DHT22;3579;48.956;9.154;2023-03-01T03:43:22;15.50;41.50
7077;DHT22;3579;48.956;9.154;2023-03-01T03:45:50;15.50;41.50
7077;DHT22;3579;48.956;9.154;2023-03-01T03:48:17;15.50;41.40
7077;DHT22;3579;48.956;9.154;2023-03-01T03:50:48;15.50;42.10
7077;DHT22;3579;48.956;9.154;2023-03-01T03:53:15;15.50;41.60
7077;DHT22;3579;48.956;9.154;2023-03-01T03:55:41;15.40;41.80
7077;DHT22;3579;48.956;9.154;2023-03-01T03:58:09;15.40;42.00
7077;DHT22;3579;48.956;9.154;2023-03-01T04:00:46;15.40;42.10
7077;DHT22;3579;48.956;9.154;2023-03-01T04:03:14;15.40;42.40
7077;DHT22;3579;48.956;9.154;2023-03-01T04:05:41;15.50;41.90
7077;DHT22;3579;48.956;9.154;2023-03-01T04:08:11;15.50;41.70
7077;DHT22;3579;48.956;9.154;2023-03-01T04:10:43;15.50;41.50
7077;DHT22;3579;48.956;9.154;2023-03-01T04:13:15;15.60;41.60
7077;DHT22;3579;48.956;9.154;2023-03-01T04:15:42;15.60;41.60
7077;DHT22;3579;48.956;9.154;2023-03-01T04:18:14;15.60;41.40
7077;DHT22;3579;48.956;9.154;2023-03-01T04:20:41;15.60;41.30
7077;DHT22;3579;48.956;9.154;2023-03-01T04:23:21;15.60;41.50
7077;DHT22;3579;48.956;9.154;2023-03-01T04:25:55;15.60;41.60
7077;DHT22;3579;48.956;9.154;2023-03-01T04:28:30;15.60;41.60
7077;DHT22;3579;48.956;9.154;2023-03-01T04:30:58;15.60;41.70
7077;DHT22;3579;48.956;9.154;2023-03-01T04:33:25;15.50;41.60
7077;DHT22;3579;48.956;9.154;2023-03-01T04:35:51;15.50;41.60
7077;DHT22;3579;48.956;9.154;2023-03-01T04:38:18;15.50;41.60
7077;DHT22;3579;48.956;9.154;2023-03-01T04:40:44;15.50;41.70
7077;DHT22;3579;48.956;9.154;2023-03-01T04:43:12;15.50;41.70
7077;DHT22;3579;48.956;9.154;2023-03-01T04:45:41;15.50;41.80
7077;DHT22;3579;48.956;9.154;2023-03-01T04:48:07;15.40;41.70
7077;DHT22;3579;48.956;9.154;2023-03-01T04:50:34;15.40;41.80
7077;DHT22;3579;48.956;9.154;2023-03-01T04:53:00;15.40;41.80
7077;DHT22;3579;48.956;9.154;2023-03-01T04:55:27;15.40;41.90
7077;DHT22;3579;48.956;9.154;2023-03-01T04:57:53;15.40;41.90
7077;DHT22;3579;48.956;9.154;2023-03-01T05:00:20;15.40;41.80
7077;DHT22;3579;48.956;9.154;2023-03-01T05:05:24;15.30;41.90
7077;DHT22;3579;48.956;9.154;2023-03-01T05:07:59;15.30;42.10
7077;DHT22;3579;48.956;9.154;2023-03-01T05:10:27;15.20;42.30
7077;DHT22;3579;48.956;9.154;2023-03-01T05:12:55;15.20;42.30
7077;DHT22;3579;48.956;9.154;2023-03-01T05:15:24;15.30;42.30
7077;DHT22;3579;48.956;9.154;2023-03-01T05:17:54;15.30;42.10
7077;DHT22;3579;48.956;9.154;2023-03-01T05:20:21;15.40;41.90
7077;DHT22;3579;48.956;9.154;2023-03-01T05:22:52;15.40;41.80
7077;DHT22;3579;48.956;9.154;2023-03-01T05:25:20;15.40;41.80
7077;DHT22;3579;48.956;9.154;2023-03-01T05:27:47;15.40;41.60
7077;DHT22;3579;48.956;9.154;2023-03-01T05:30:13;15.50;42.30
7077;DHT22;3579;48.956;9.154;2023-03-01T05:32:47;15.50;41.70
7077;DHT22;3579;48.956;9.154;2023-03-01T05:35:15;15.50;41.70
7077;DHT22;3579;48.956;9.154;2023-03-01T05:37:47;15.50;41.60
7077;DHT22;3579;48.956;9.154;2023-03-01T05:40:16;15.50;41.70
7077;DHT22;3579;48.956;9.154;2023-03-01T05:42:48;15.50;41.80
7077;DHT22;3579;48.956;9.154;2023-03-01T05:45:15;15.40;41.70
7077;DHT22;3579;48.956;9.154;2023-03-01T05:47:43;15.40;41.80
7077;DHT22;3579;48.956;9.154;2023-03-01T05:52:37;15.40;41.80
7077;DHT22;3579;48.956;9.154;2023-03-01T05:55:04;15.40;41.90
7077;DHT22;3579;48.956;9.154;2023-03-01T05:57:30;15.40;41.90
7077;DHT22;3579;48.956;9.154;2023-03-01T05:59:56;15.30;41.80
7077;DHT22;3579;48.956;9.154;2023-03-01T06:02:22;15.30;41.90
7077;DHT22;3579;48.956;9.154;2023-03-01T06:04:48;15.30;41.90
7077;DHT22;3579;48.956;9.154;2023-03-01T06:07:14;15.30;41.90
7077;DHT22;3579;48.956;9.154;2023-03-01T06:09:40;14.90;41.60
7077;DHT22;3579;48.956;9.154;2023-03-01T06:12:06;15.20;41.90
7077;DHT22;3579;48.956;9.154;2023-03-01T06:14:32;15.30;41.90
7077;DHT22;3579;48.956;9.154;2023-03-01T06:16:58;15.20;41.80
7077;DHT22;3579;48.956;9.154;2023-03-01T06:19:24;15.20;42.00
7077;DHT22;3579;48.956;9.154;2023-03-01T06:21:50;15.20;42.00
7077;DHT22;3579;48.956;9.154;2023-03-01T06:24:16;15.20;42.10
7077;DHT22;3579;48.956;9.154;2023-03-01T06:26:42;15.10;42.30
7077;DHT22;3579;48.956;9.154;2023-03-01T06:29:08;15.10;42.40
7077;DHT22;3579;48.956;9.154;2023-03-01T06:31:34;15.10;42.20
7077;DHT22;3579;48.956;9.154;2023-03-01T06:34:00;15.20;42.10
7077;DHT22;3579;48.956;9.154;2023-03-01T06:36:26;15.30;42.00
7077;DHT22;3579;48.956;9.154;2023-03-01T06:38:52;15.30;41.90
7077;DHT22;3579;48.956;9.154;2023-03-01T06:41:18;15.40;42.00
7077;DHT22;3579;48.956;9.154;2023-03-01T06:43:44;15.40;41.90
7077;DHT22;3579;48.956;9.154;2023-03-01T06:46:10;15.40;41.90
7077;DHT22;3579;48.956;9.154;2023-03-01T06:48:36;15.40;41.90
7077;DHT22;3579;48.956;9.154;2023-03-01T06:51:02;15.40;41.90
7077;DHT22;3579;48.956;9.154;2023-03-01T06:53:29;15.40;41.80
7077;DHT22;3579;48.956;9.154;2023-03-01T06:55:58;15.50;41.80
7077;DHT22;3579;48.956;9.154;2023-03-01T06:58:27;15.50;41.80
7077;DHT22;3579;48.956;9.154;2023-03-01T07:00:53;15.50;41.80
7077;DHT22;3579;48.956;9.154;2023-03-01T07:03:19;15.50;41.70
7077;DHT22;3579;48.956;9.154;2023-03-01T07:05:48;15.50;41.70
7077;DHT22;3579;48.956;9.154;2023-03-01T07:08:15;15.60;41.80
7077;DHT22;3579;48.956;9.154;2023-03-01T07:10:41;15.60;41.70
7077;DHT22;3579;48.956;9.154;2023-03-01T07:13:08;15.60;41.70
7077;DHT22;3579;48.956;9.154;2023-03-01T07:15:34;15.60;41.70
7077;DHT22;3579;48.956;9.154;2023-03-01T07:18:00;15.60;41.70
7077;DHT22;3579;48.956;9.154;2023-03-01T07:20:26;15.60;41.70
7077;DHT22;3579;48.956;9.154;2023-03-01T07:22:53;15.60;41.70
7077;DHT22;3579;48.956;9.154;2023-03-01T07:25:19;15.70;41.80
7077;DHT22;3579;48.956;9.154;2023-03-01T07:27:54;15.70;41.80
7077;DHT22;3579;48.956;9.154;2023-03-01T07:30:21;15.70;41.80
7077;DHT22;3579;48.956;9.154;2023-03-01T07:32:47;15.70;41.70
7077;DHT22;3579;48.956;9.154;2023-03-01T07:35:13;15.80;41.80
7077;DHT22;3579;48.956;9.154;2023-03-01T07:37:40;15.80;41.80
7077;DHT22;3579;48.956;9.154;2023-03-01T07:40:07;15.80;41.80
7077;DHT22;3579;48.956;9.154;2023-03-01T07:42:33;15.80;41.70
7077;DHT22;3579;48.956;9.154;2023-03-01T07:44:59;15.80;41.70
7077;DHT22;3579;48.956;9.154;2023-03-01T07:47:25;15.90;41.80
7077;DHT22;3579;48.956;9.154;2023-03-01T07:49:51;15.90;41.80
7077;DHT22;3579;48.956;9.154;2023-03-01T07:52:17;15.90;41.80
7077;DHT22;3579;48.956;9.154;2023-03-01T07:54:43;15.90;41.80
7077;DHT22;3579;48.956;9.154;2023-03-01T07:57:10;15.90;41.80
7077;DHT22;3579;48.956;9.154;2023-03-01T07:59:37;15.90;41.80
7077;DHT22;3579;48.956;9.154;2023-03-01T08:02:03;16.00;41.90
7077;DHT22;3579;48.956;9.154;2023-03-01T08:04:29;16.00;41.90
7077;DHT22;3579;48.956;9.154;2023-03-01T08:06:55;16.00;41.70
7077;DHT22;3579;48.956;9.154;2023-03-01T08:09:21;16.00;41.70
7077;DHT22;3579;48.956;9.154;2023-03-01T08:11:48;16.00;41.70
7077;DHT22;3579;48.956;9.154;2023-03-01T08:14:14;16.00;41.80
7077;DHT22;3579;48.956;9.154;2023-03-01T08:16:40;16.00;42.20
7077;DHT22;3579;48.956;9.154;2023-03-01T08:19:11;16.00;42.80
7077;DHT22;3579;48.956;9.154;2023-03-01T08:21:37;16.00;42.90
7077;DHT22;3579;48.956;9.154;2023-03-01T08:24:04;16.10;43.20
7077;DHT22;3579;48.956;9.154;2023-03-01T08:26:32;16.10;43.40
7077;DHT22;3579;48.956;9.154;2023-03-01T08:28:59;16.20;43.90
7077;DHT22;3579;48.956;9.154;2023-03-01T08:31:28;16.20;44.00
7077;DHT22;3579;48.956;9.154;2023-03-01T08:34:05;16.20;44.00
7077;DHT22;3579;48.956;9.154;2023-03-01T08:36:42;16.30;44.10
7077;DHT22;3579;48.956;9.154;2023-03-01T08:39:15;16.30;44.20
7077;DHT22;3579;48.956;9.154;2023-03-01T08:41:42;16.30;44.20
7077;DHT22;3579;48.956;9.154;2023-03-01T08:44:10;16.40;44.30
7077;DHT22;3579;48.956;9.154;2023-03-01T08:46:39;16.40;44.30
7077;DHT22;3579;48.956;9.154;2023-03-01T08:49:08;16.40;44.30
7077;DHT22;3579;48.956;9.154;2023-03-01T08:51:34;16.50;44.50
7077;DHT22;3579;48.956;9.154;2023-03-01T08:54:09;16.50;44.50
7077;DHT22;3579;48.956;9.154;2023-03-01T08:56:36;16.60;44.60
7077;DHT22;3579;48.956;9.154;2023-03-01T08:59:02;16.60;44.70
7077;DHT22;3579;48.956;9.154;2023-03-01T09:01:28;16.60;44.60
7077;DHT22;3579;48.956;9.154;2023-03-01T09:03:54;16.70;44.80
7077;DHT22;3579;48.956;9.154;2023-03-01T09:06:20;16.70;44.80
7077;DHT22;3579;48.956;9.154;2023-03-01T09:08:48;16.80;44.80
7077;DHT22;3579;48.956;9.154;2023-03-01T09:11:18;16.80;44.80
7077;DHT22;3579;48.956;9.154;2023-03-01T09:13:46;16.80;44.80
7077;DHT22;3579;48.956;9.154;2023-03-01T09:16:14;16.90;44.80
7077;DHT22;3579;48.956;9.154;2023-03-01T09:18:40;16.90;44.80
7077;DHT22;3579;48.956;9.154;2023-03-01T09:21:13;17.00;44.80
7077;DHT22;3579;48.956;9.154;2023-03-01T09:23:44;17.00;44.70
7077;DHT22;3579;48.956;9.154;2023-03-01T09:26:16;17.00;44.60
7077;DHT22;3579;48.956;9.154;2023-03-01T09:28:43;17.10;44.70
7077;DHT22;3579;48.956;9.154;2023-03-01T09:31:11;17.10;44.60
7077;DHT22;3579;48.956;9.154;2023-03-01T09:33:41;17.10;44.70
7077;DHT22;3579;48.956;9.154;2023-03-01T09:36:12;17.20;44.90
7077;DHT22;3579;48.956;9.154;2023-03-01T09:38:39;17.20;39.00
7077;DHT22;3579;48.956;9.154;2023-03-01T09:44:21;17.00;34.60
7077;DHT22;3579;48.956;9.154;2023-03-01T09:46:50;16.70;32.80
7077;DHT22;3579;48.956;9.154;2023-03-01T09:49:26;16.70;35.40
7077;DHT22;3579;48.956;9.154;2023-03-01T09:51:57;16.80;37.30
7077;DHT22;3579;48.956;9.154;2023-03-01T09:54:24;16.90;36.70
7077;DHT22;3579;48.956;9.154;2023-03-01T09:59:25;17.10;37.10
7077;DHT22;3579;48.956;9.154;2023-03-01T10:04:51;17.30;38.00
7077;DHT22;3579;48.956;9.154;2023-03-01T10:07:30;17.30;38.30
7077;DHT22;3579;48.956;9.154;2023-03-01T10:09:58;17.30;38.50
7077;DHT22;3579;48.956;9.154;2023-03-01T10:12:35;17.40;38.80
7077;DHT22;3579;48.956;9.154;2023-03-01T10:15:06;17.40;39.00
7077;DHT22;3579;48.956;9.154;2023-03-01T10:20:22;17.50;39.50
7077;DHT22;3579;48.956;9.154;2023-03-01T10:22:49;17.60;39.70
7077;DHT22;3579;48.956;9.154;2023-03-01T10:28:17;17.60;40.10
7077;DHT22;3579;48.956;9.154;2023-03-01T10:30:45;17.70;40.40
7077;DHT22;3579;48.956;9.154;2023-03-01T10:33:27;17.70;40.50
7077;DHT22;3579;48.956;9.154;2023-03-01T10:35:54;17.80;41.40
7077;DHT22;3579;48.956;9.154;2023-03-01T10:38:21;17.80;41.20
7077;DHT22;3579;48.956;9.154;2023-03-01T10:43:32;17.90;41.40
7077;DHT22;3579;48.956;9.154;2023-03-01T10:49:19;17.90;41.30
7077;DHT22;3579;48.956;9.154;2023-03-01T10:51:48;18.00;41.40
7077;DHT22;3579;48.956;9.154;2023-03-01T10:54:28;18.00;41.40
7077;DHT22;3579;48.956;9.154;2023-03-01T10:57:05;18.10;41.60
7077;DHT22;3579;48.956;9.154;2023-03-01T10:59:37;18.10;41.60
7077;DHT22;3579;48.956;9.154;2023-03-01T11:04:30;18.20;41.80
7077;DHT22;3579;48.956;9.154;2023-03-01T11:07:00;18.20;41.70
7077;DHT22;3579;48.956;9.154;2023-03-01T11:09:31;18.30;41.80
7077;DHT22;3579;48.956;9.154;2023-03-01T11:12:11;18.30;41.90
7077;DHT22;3579;48.956;9.154;2023-03-01T11:14:46;18.30;41.90
7077;DHT22;3579;48.956;9.154;2023-03-01T11:17:31;18.40;41.90
7077;DHT22;3579;48.956;9.154;2023-03-01T11:22:58;18.40;42.00
7077;DHT22;3579;48.956;9.154;2023-03-01T11:25:30;18.50;42.20
7077;DHT22;3579;48.956;9.154;2023-03-01T11:27:59;18.50;42.10
7077;DHT22;3579;48.956;9.154;2023-03-01T11:30:39;18.50;42.30
7077;DHT22;3579;48.956;9.154;2023-03-01T11:35:58;18.60;42.50
7077;DHT22;3579;48.956;9.154;2023-03-01T11:38:27;18.70;43.00
7077;DHT22;3579;48.956;9.154;2023-03-01T11:41:06;18.60;42.30
7077;DHT22;3579;48.956;9.154;2023-03-01T11:43:46;18.60;42.30
7077;DHT22;3579;48.956;9.154;2023-03-01T12:37:50;18.60;32.80
7077;DHT22;3579;48.956;9.154;2023-03-01T12:40:54;18.60;32.30
7077;DHT22;3579;48.956;9.154;2023-03-01T12:43:41;18.50;31.90
7077;DHT22;3579;48.956;9.154;2023-03-01T12:46:35;18.50;31.00
7077;DHT22;3579;48.956;9.154;2023-03-01T12:51:32;18.50;32.60
7077;DHT22;3579;48.956;9.154;2023-03-01T12:54:07;18.60;33.20
7077;DHT22;3579;48.956;9.154;2023-03-01T12:56:37;18.70;33.40
7077;DHT22;3579;48.956;9.154;2023-03-01T12:59:15;18.80;33.60
7077;DHT22;3579;48.956;9.154;2023-03-01T13:02:18;18.80;33.80
7077;DHT22;3579;48.956;9.154;2023-03-01T13:10:34;18.90;34.90
7077;DHT22;3579;48.956;9.154;2023-03-01T13:13:12;19.00;35.30
7077;DHT22;3579;48.956;9.154;2023-03-01T13:15:41;19.00;35.60
7077;DHT22;3579;48.956;9.154;2023-03-01T13:23:25;19.10;36.10
7077;DHT22;3579;48.956;9.154;2023-03-01T13:30:58;19.30;36.90
7077;DHT22;3579;48.956;9.154;2023-03-01T13:36:00;19.30;37.10
7077;DHT22;3579;48.956;9.154;2023-03-01T13:46:52;19.40;37.60
7077;DHT22;3579;48.956;9.154;2023-03-01T13:49:21;19.40;37.70
7077;DHT22;3579;48.956;9.154;2023-03-01T13:51:49;19.40;38.00
7077;DHT22;3579;48.956;9.154;2023-03-01T13:54:26;19.40;38.70
7077;DHT22;3579;48.956;9.154;2023-03-01T13:56:53;19.40;39.10
7077;DHT22;3579;48.956;9.154;2023-03-01T13:59:22;19.50;39.30
7077;DHT22;3579;48.956;9.154;2023-03-01T14:01:59;19.50;39.30
7077;DHT22;3579;48.956;9.154;2023-03-01T14:04:27;19.50;39.70
7077;DHT22;3579;48.956;9.154;2023-03-01T14:07:13;19.50;40.10
7077;DHT22;3579;48.956;9.154;2023-03-01T14:09:44;19.50;40.10
7077;DHT22;3579;48.956;9.154;2023-03-01T14:15:39;19.60;40.40
7077;DHT22;3579;48.956;9.154;2023-03-01T14:20:44;19.60;40.80
7077;DHT22;3579;48.956;9.154;2023-03-01T14:23:22;19.60;40.90
7077;DHT22;3579;48.956;9.154;2023-03-01T14:25:53;19.60;41.10
7077;DHT22;3579;48.956;9.154;2023-03-01T14:28:24;19.70;41.00
7077;DHT22;3579;48.956;9.154;2023-03-01T14:30:53;19.70;41.20
7077;DHT22;3579;48.956;9.154;2023-03-01T14:33:32;19.80;41.50
7077;DHT22;3579;48.956;9.154;2023-03-01T14:36:09;19.70;41.50
7077;DHT22;3579;48.956;9.154;2023-03-01T14:38:44;19.80;41.70
7077;DHT22;3579;48.956;9.154;2023-03-01T14:41:19;19.80;41.80
7077;DHT22;3579;48.956;9.154;2023-03-01T14:46:43;19.90;42.00
7077;DHT22;3579;48.956;9.154;2023-03-01T14:51:40;19.90;42.20
7077;DHT22;3579;48.956;9.154;2023-03-01T14:54:27;19.90;42.30
7077;DHT22;3579;48.956;9.154;2023-03-01T14:56:59;20.00;42.40
7077;DHT22;3579;48.956;9.154;2023-03-01T14:59:25;20.00;42.50
7077;DHT22;3579;48.956;9.154;2023-03-01T15:01:54;20.00;42.60
7077;DHT22;3579;48.956;9.154;2023-03-01T15:04:22;20.00;42.80
7077;DHT22;3579;48.956;9.154;2023-03-01T15:06:53;20.00;43.00
7077;DHT22;3579;48.956;9.154;2023-03-01T15:09:21;20.10;43.20
7077;DHT22;3579;48.956;9.154;2023-03-01T15:11:49;20.10;43.30
7077;DHT22;3579;48.956;9.154;2023-03-01T15:14:47;20.10;43.30
7077;DHT22;3579;48.956;9.154;2023-03-01T15:17:35;20.10;42.90
7077;DHT22;3579;48.956;9.154;2023-03-01T15:20:05;20.10;43.00
7077;DHT22;3579;48.956;9.154;2023-03-01T15:22:32;20.10;43.10
7077;DHT22;3579;48.956;9.154;2023-03-01T15:24:59;20.10;43.20
7077;DHT22;3579;48.956;9.154;2023-03-01T15:27:25;20.10;43.10
7077;DHT22;3579;48.956;9.154;2023-03-01T15:29:58;20.10;43.10
7077;DHT22;3579;48.956;9.154;2023-03-01T15:32:26;20.10;43.20
7077;DHT22;3579;48.956;9.154;2023-03-01T15:34:53;18.40;41.80
7077;DHT22;3579;48.956;9.154;2023-03-01T15:40:27;20.20;43.30
7077;DHT22;3579;48.956;9.154;2023-03-01T15:43:05;20.20;43.30
7077;DHT22;3579;48.956;9.154;2023-03-01T15:45:32;20.20;43.50
7077;DHT22;3579;48.956;9.154;2023-03-01T15:48:19;20.20;43.40
7077;DHT22;3579;48.956;9.154;2023-03-01T15:50:54;20.20;43.20
7077;DHT22;3579;48.956;9.154;2023-03-01T15:53:21;20.20;43.40
7077;DHT22;3579;48.956;9.154;2023-03-01T15:55:47;20.20;43.50
7077;DHT22;3579;48.956;9.154;2023-03-01T15:58:24;20.20;43.40
7077;DHT22;3579;48.956;9.154;2023-03-01T16:00:51;20.30;43.50
7077;DHT22;3579;48.956;9.154;2023-03-01T16:03:22;20.30;43.50
7077;DHT22;3579;48.956;9.154;2023-03-01T16:05:49;20.20;43.30
7077;DHT22;3579;48.956;9.154;2023-03-01T16:08:16;20.30;38.60
7077;DHT22;3579;48.956;9.154;2023-03-01T16:10:42;20.10;37.10
7077;DHT22;3579;48.956;9.154;2023-03-01T16:13:12;20.10;38.90
7077;DHT22;3579;48.956;9.154;2023-03-01T16:15:39;20.00;39.90
7077;DHT22;3579;48.956;9.154;2023-03-01T16:18:06;20.10;40.40
7077;DHT22;3579;48.956;9.154;2023-03-01T16:20:34;20.10;40.70
7077;DHT22;3579;48.956;9.154;2023-03-01T16:23:01;20.30;40.80
7077;DHT22;3579;48.956;9.154;2023-03-01T16:25:28;20.30;41.20
7077;DHT22;3579;48.956;9.154;2023-03-01T16:27:55;20.30;41.50
7077;DHT22;3579;48.956;9.154;2023-03-01T16:30:22;20.30;41.50
7077;DHT22;3579;48.956;9.154;2023-03-01T16:32:49;20.30;41.50
7077;DHT22;3579;48.956;9.154;2023-03-01T16:35:18;20.30;41.70
7077;DHT22;3579;48.956;9.154;2023-03-01T16:37:46;20.30;41.60
7077;DHT22;3579;48.956;9.154;2023-03-01T16:40:21;20.30;41.70
7077;DHT22;3579;48.956;9.154;2023-03-01T16:42:49;20.30;41.70
7077;DHT22;3579;48.956;9.154;2023-03-01T16:45:16;20.30;41.80
7077;DHT22;3579;48.956;9.154;2023-03-01T16:47:42;20.40;41.90
7077;DHT22;3579;48.956;9.154;2023-03-01T16:50:09;20.30;41.90
7077;DHT22;3579;48.956;9.154;2023-03-01T16:52:36;20.30;41.80
7077;DHT22;3579;48.956;9.154;2023-03-01T16:55:04;20.30;41.70
7077;DHT22;3579;48.956;9.154;2023-03-01T16:57:30;20.30;41.50
7077;DHT22;3579;48.956;9.154;2023-03-01T16:59:57;20.30;41.40
7077;DHT22;3579;48.956;9.154;2023-03-01T17:02:23;20.30;41.20
7077;DHT22;3579;48.956;9.154;2023-03-01T17:04:53;20.30;41.20
7077;DHT22;3579;48.956;9.154;2023-03-01T17:07:19;20.30;41.10
7077;DHT22;3579;48.956;9.154;2023-03-01T17:09:45;20.30;41.00
7077;DHT22;3579;48.956;9.154;2023-03-01T17:12:12;20.30;40.90
7077;DHT22;3579;48.956;9.154;2023-03-01T17:14:39;20.30;41.00
7077;DHT22;3579;48.956;9.154;2023-03-01T17:17:08;20.20;40.90
7077;DHT22;3579;48.956;9.154;2023-03-01T17:19:34;20.20;40.90
7077;DHT22;3579;48.956;9.154;2023-03-01T17:22:02;20.20;40.80
7077;DHT22;3579;48.956;9.154;2023-03-01T17:24:36;20.20;40.70
7077;DHT22;3579;48.956;9.154;2023-03-01T17:27:03;20.20;40.70
7077;DHT22;3579;48.956;9.154;2023-03-01T17:29:29;20.20;40.70
7077;DHT22;3579;48.956;9.154;2023-03-01T17:31:55;20.20;40.60
7077;DHT22;3579;48.956;9.154;2023-03-01T17:34:22;20.20;40.60
7077;DHT22;3579;48.956;9.154;2023-03-01T17:36:49;20.20;40.60
7077;DHT22;3579;48.956;9.154;2023-03-01T17:39:18;20.20;40.60
7077;DHT22;3579;48.956;9.154;2023-03-01T17:41:51;20.20;40.50
7077;DHT22;3579;48.956;9.154;2023-03-01T17:44:17;20.20;40.50
7077;DHT22;3579;48.956;9.154;2023-03-01T17:46:44;20.20;40.40
7077;DHT22;3579;48.956;9.154;2023-03-01T17:49:10;20.20;40.50
7077;DHT22;3579;48.956;9.154;2023-03-01T17:51:36;20.20;40.40
7077;DHT22;3579;48.956;9.154;2023-03-01T17:54:03;20.20;40.30
7077;DHT22;3579;48.956;9.154;2023-03-01T17:56:29;20.10;40.20
7077;DHT22;3579;48.956;9.154;2023-03-01T17:58:57;20.10;40.30
7077;DHT22;3579;48.956;9.154;2023-03-01T18:01:22;20.10;40.30
7077;DHT22;3579;48.956;9.154;2023-03-01T18:03:52;20.10;40.30
7077;DHT22;3579;48.956;9.154;2023-03-01T18:06:26;20.10;40.30
7077;DHT22;3579;48.956;9.154;2023-03-01T18:08:53;20.10;40.10
7077;DHT22;3579;48.956;9.154;2023-03-01T18:11:21;20.10;40.20
7077;DHT22;3579;48.956;9.154;2023-03-01T18:13:47;20.10;40.30
7077;DHT22;3579;48.956;9.154;2023-03-01T18:16:15;20.00;40.10
7077;DHT22;3579;48.956;9.154;2023-03-01T18:18:43;20.10;40.30
7077;DHT22;3579;48.956;9.154;2023-03-01T18:21:13;20.00;40.30
7077;DHT22;3579;48.956;9.154;2023-03-01T18:23:40;20.00;40.40
7077;DHT22;3579;48.956;9.154;2023-03-01T18:26:10;20.00;40.50
7077;DHT22;3579;48.956;9.154;2023-03-01T18:28:37;20.00;40.50
7077;DHT22;3579;48.956;9.154;2023-03-01T18:31:09;20.00;40.60
7077;DHT22;3579;48.956;9.154;2023-03-01T18:33:38;19.90;40.50
7077;DHT22;3579;48.956;9.154;2023-03-01T18:36:05;19.90;40.60
7077;DHT22;3579;48.956;9.154;2023-03-01T18:38:40;19.90;40.60
7077;DHT22;3579;48.956;9.154;2023-03-01T18:41:06;19.90;40.60